createdAt,value
2023-03-05T00:01:11.105Z,11.8
2023-03-05T00:04:13.124Z,13
2023-03-05T00:07:15.015Z,14.2
2023-03-05T00:10:16.981Z,14.3
2023-03-05T00:13:18.932Z,11.9
2023-03-05T00:16:21.044Z,9.9
2023-03-05T00:19:22.896Z,11.3
2023-03-05T00:22:24.845Z,13.1
2023-03-05T00:25:26.786Z,11.5
2023-03-05T00:28:28.891Z,10.1
2023-03-05T00:31:30.793Z,9.9
2023-03-05T00:34:32.684Z,10.9
2023-03-05T00:37:34.647Z,8.2
2023-03-05T00:40:36.685Z,11.4
2023-03-05T00:43:38.600Z,11.1
2023-03-05T00:46:40.751Z,11.3
2023-03-05T00:49:42.530Z,10.7
2023-03-05T00:52:44.631Z,9.1
2023-03-05T00:55:46.467Z,7.4
2023-03-05T00:58:48.442Z,10.8
2023-03-05T01:01:50.386Z,8.7
2023-03-05T01:04:52.326Z,10.4
2023-03-05T01:07:54.285Z,10.3
2023-03-05T01:10:56.271Z,10.2
2023-03-05T01:13:58.195Z,11.6
2023-03-05T01:17:00.163Z,13.1
2023-03-05T01:20:02.113Z,12.5
2023-03-05T01:23:04.077Z,8.3
2023-03-05T01:26:06.038Z,10.6
2023-03-05T01:29:08.019Z,8.7
2023-03-05T01:32:09.975Z,11.9
2023-03-05T01:35:11.920Z,10.1
2023-03-05T01:38:13.952Z,13.4
2023-03-05T01:41:15.886Z,10.2
2023-03-05T01:44:17.848Z,8.6
2023-03-05T01:47:19.818Z,8.1
2023-03-05T01:50:21.777Z,6.2
2023-03-05T01:53:23.706Z,9
2023-03-05T01:56:25.693Z,6.1
2023-03-05T01:59:27.637Z,12.6
2023-03-05T02:02:29.588Z,6.6
2023-03-05T02:05:31.672Z,6.3
2023-03-05T02:08:33.571Z,7.7
2023-03-05T02:11:35.564Z,6.2
2023-03-05T02:14:37.577Z,5.8
2023-03-05T02:17:39.438Z,4.7
2023-03-05T02:20:41.381Z,8.5
2023-03-05T02:23:43.366Z,6.8
2023-03-05T02:26:45.318Z,7
2023-03-05T02:29:47.315Z,7.4
2023-03-05T02:32:49.239Z,9.6
2023-03-05T02:35:51.295Z,9.5
2023-03-05T02:38:53.175Z,10
2023-03-05T02:41:55.136Z,5.8
2023-03-05T02:44:57.135Z,7.8
2023-03-05T02:47:59.107Z,10.9
2023-03-05T02:51:01.084Z,9.4
2023-03-05T02:54:03.046Z,10.2
2023-03-05T02:57:04.983Z,7.4
2023-03-05T03:00:06.984Z,10.2
2023-03-05T03:03:09.028Z,11.4
2023-03-05T03:06:10.839Z,9.3
2023-03-05T03:09:12.816Z,10.5
2023-03-05T03:12:14.810Z,12.5
2023-03-05T03:15:16.759Z,10.3
2023-03-05T03:18:18.702Z,10.5
2023-03-05T03:21:20.703Z,11.1
2023-03-05T03:24:22.660Z,10.2
2023-03-05T03:27:24.637Z,7.2
2023-03-05T03:30:26.589Z,10.8
2023-03-05T03:33:28.512Z,11.5
2023-03-05T03:36:30.489Z,9.5
2023-03-05T03:39:32.446Z,10
2023-03-05T03:42:34.417Z,7.5
2023-03-05T03:45:36.375Z,9.6
2023-03-05T03:48:38.378Z,11.6
2023-03-05T03:51:40.292Z,14.6
2023-03-05T03:54:42.274Z,9.5
2023-03-05T03:57:44.227Z,10.6
2023-03-05T04:00:46.212Z,13.5
2023-03-05T04:03:48.175Z,10.8
2023-03-05T04:06:50.099Z,11.4
2023-03-05T04:09:52.062Z,11.3
2023-03-05T04:12:54.043Z,10.1
2023-03-05T04:15:56.023Z,6.8
2023-03-05T04:18:57.980Z,9.2
2023-03-05T04:21:59.941Z,9.5
2023-03-05T04:25:01.866Z,8.9
2023-03-05T04:28:03.828Z,7.6
2023-03-05T04:31:05.824Z,8.2
2023-03-05T04:34:07.738Z,5.9
2023-03-05T04:37:09.739Z,6.9
2023-03-05T04:40:11.703Z,7
2023-03-05T04:43:13.640Z,6.6
2023-03-05T04:46:15.622Z,6.1
2023-03-05T04:49:17.565Z,8.6
2023-03-05T04:52:19.529Z,3.5
2023-03-05T04:55:21.481Z,7.1
2023-03-05T04:58:23.468Z,5
2023-03-05T05:01:25.504Z,5.1
2023-03-05T05:04:27.341Z,7.6
2023-03-05T05:07:29.326Z,4.4
2023-03-05T05:10:31.290Z,6.1
2023-03-05T05:13:33.278Z,6.4
2023-03-05T05:16:35.317Z,4.8
2023-03-05T05:19:37.238Z,4.5
2023-03-05T05:22:39.149Z,3
2023-03-05T05:25:41.105Z,4.4
2023-03-05T05:28:43.037Z,3.8
2023-03-05T05:31:45.098Z,4.2
2023-03-05T05:34:46.999Z,3.7
2023-03-05T05:37:48.978Z,3.3
2023-03-05T05:40:50.917Z,4.1
2023-03-05T05:43:52.853Z,6.3
2023-03-05T05:46:54.821Z,3.6
2023-03-05T05:49:56.781Z,4.3
2023-03-05T05:52:58.772Z,3.3
2023-03-05T05:56:00.915Z,3.6
2023-03-05T05:59:02.708Z,3.5
2023-03-05T06:02:04.749Z,4.8
2023-03-05T06:05:06.845Z,3.7
2023-03-05T06:08:08.584Z,4.3
2023-03-05T06:11:10.536Z,5.8
2023-03-05T06:14:12.482Z,4.1
2023-03-05T06:17:19.274Z,2.4
2023-03-05T06:20:16.432Z,8.2
2023-03-05T06:23:18.385Z,5.6
2023-03-05T06:26:20.386Z,4.2
2023-03-05T06:29:22.321Z,6
2023-03-05T06:32:24.277Z,4.5
2023-03-05T06:35:26.258Z,5
2023-03-05T06:38:28.209Z,5
2023-03-05T06:41:30.247Z,5.5
2023-03-05T06:44:32.209Z,4.5
2023-03-05T06:47:34.119Z,4.6
2023-03-05T06:50:36.124Z,5.3
2023-03-05T06:53:38.060Z,5.3
2023-03-05T06:56:40.232Z,4.8
2023-03-05T06:59:41.963Z,4.4
2023-03-05T07:02:43.987Z,5.4
2023-03-05T07:05:45.868Z,5.9
2023-03-05T07:08:47.859Z,7
2023-03-05T07:11:49.797Z,4.6
2023-03-05T07:14:51.741Z,5.8
2023-03-05T07:17:53.705Z,5.2
2023-03-05T07:20:55.678Z,5
2023-03-05T07:23:57.642Z,4.8
2023-03-05T07:26:59.613Z,5.5
2023-03-05T07:30:01.558Z,6.9
2023-03-05T07:33:03.498Z,9.4
2023-03-05T07:36:05.437Z,8.2
2023-03-05T07:39:07.440Z,9.1
2023-03-05T07:42:09.432Z,12.3
2023-03-05T07:45:11.331Z,8.3
2023-03-05T07:48:13.322Z,10.6
2023-03-05T07:51:15.289Z,12.7
2023-03-05T07:54:17.211Z,10.5
2023-03-05T07:57:19.187Z,8.9
2023-03-05T08:00:21.174Z,9
2023-03-05T08:03:23.158Z,8.7
2023-03-05T08:06:25.145Z,9.1
2023-03-05T08:09:27.072Z,9.8
2023-03-05T08:12:29.029Z,8.8
2023-03-05T08:15:31.069Z,11
2023-03-05T08:18:33.008Z,7.7
2023-03-05T08:21:35.002Z,9.6
2023-03-05T08:24:37.019Z,7.5
2023-03-05T08:27:38.891Z,9.3
2023-03-05T08:30:40.844Z,8.8
2023-03-05T08:33:42.804Z,7.7
2023-03-05T08:36:44.777Z,8.7
2023-03-05T08:39:46.717Z,10.5
2023-03-05T08:42:48.722Z,7.5
2023-03-05T08:45:50.648Z,10.3
2023-03-05T08:48:52.661Z,12.7
2023-03-05T08:51:54.617Z,10
2023-03-05T08:54:56.678Z,8.3
2023-03-05T08:57:58.502Z,9
2023-03-05T09:01:00.504Z,11.6
2023-03-05T09:04:02.435Z,8.6
2023-03-05T09:07:05.905Z,11.7
2023-03-05T09:10:06.404Z,9.2
2023-03-05T09:13:08.368Z,9.5
2023-03-05T09:16:10.402Z,11.8
2023-03-05T09:19:12.274Z,12.1
2023-03-05T09:22:14.245Z,9.2
2023-03-05T09:25:16.244Z,11.9
2023-03-05T09:28:18.195Z,13
2023-03-05T09:31:20.282Z,10.1
2023-03-05T09:34:22.124Z,11.8
2023-03-05T09:37:24.043Z,11
2023-03-05T09:40:26.034Z,8.7
2023-03-05T09:43:28.010Z,9.7
2023-03-05T09:46:29.937Z,10.4
2023-03-05T09:49:31.915Z,13.5
2023-03-05T09:52:33.856Z,13.7
2023-03-05T09:55:35.826Z,14.2
2023-03-05T09:58:37.984Z,13.4
2023-03-05T10:01:39.767Z,11
2023-03-05T10:04:41.731Z,14
2023-03-05T10:07:43.654Z,12.9
2023-03-05T10:10:45.690Z,12.5
2023-03-05T10:13:47.626Z,14.6
2023-03-05T10:16:49.656Z,13.7
2023-03-05T10:19:51.564Z,13.2
2023-03-05T10:22:53.552Z,13.5
2023-03-05T10:25:55.521Z,12.8
2023-03-05T10:28:57.468Z,13.2
2023-03-05T10:31:59.556Z,17.3
2023-03-05T10:35:01.515Z,13.8
2023-03-05T10:38:03.333Z,12.9
2023-03-05T10:41:05.321Z,11.5
2023-03-05T10:44:07.277Z,12.1
2023-03-05T10:47:09.225Z,12.1
2023-03-05T10:50:11.228Z,15.4
2023-03-05T10:53:13.187Z,18.8
2023-03-05T10:56:15.161Z,64.7
2023-03-05T10:59:17.104Z,36.1
2023-03-05T11:02:19.143Z,25.4
2023-03-05T11:05:21.072Z,26.8
2023-03-05T11:08:23.016Z,16.7
2023-03-05T11:11:24.953Z,19
2023-03-05T11:14:26.968Z,13.9
2023-03-05T11:17:28.904Z,15.4
2023-03-05T11:20:30.862Z,16.7
2023-03-05T11:23:32.829Z,13.7
2023-03-05T11:26:34.792Z,15.2
2023-03-05T11:29:36.738Z,14.2
2023-03-05T11:32:38.733Z,15.7
2023-03-05T11:35:40.681Z,12.5
2023-03-05T11:38:42.634Z,14.9
2023-03-05T11:41:44.606Z,12
2023-03-05T11:44:46.549Z,11.7
2023-03-05T11:47:48.525Z,10.2
2023-03-05T11:50:50.506Z,10.2
2023-03-05T11:53:52.475Z,12.1
2023-03-05T11:56:54.435Z,17.4
2023-03-05T11:59:56.403Z,11.3
2023-03-05T12:02:58.424Z,13.4
2023-03-05T12:06:00.288Z,11.5
2023-03-05T12:09:02.245Z,10.2
2023-03-05T12:12:04.209Z,9
2023-03-05T12:15:06.158Z,10.5
2023-03-05T12:18:08.130Z,12.2
2023-03-05T12:21:10.074Z,11.5
2023-03-05T12:24:12.039Z,9.6
2023-03-05T12:27:14.026Z,11.2
2023-03-05T12:30:16.095Z,9.6
2023-03-05T12:33:17.959Z,10.8
2023-03-05T12:36:19.927Z,8.7
2023-03-05T12:39:21.892Z,8.3
2023-03-05T12:42:23.880Z,9.6
2023-03-05T12:45:25.824Z,8.2
2023-03-05T12:48:27.836Z,8.3
2023-03-05T12:51:29.794Z,9.7
2023-03-05T12:54:31.718Z,9
2023-03-05T12:57:33.644Z,8.4
2023-03-05T13:00:35.612Z,9.1
2023-03-05T13:03:37.620Z,9
2023-03-05T13:06:39.533Z,9.3
2023-03-05T13:09:41.490Z,7.8
2023-03-05T13:12:43.430Z,8.2
2023-03-05T13:15:45.392Z,7.6
2023-03-05T13:18:47.427Z,10.5
2023-03-05T13:21:49.328Z,6.8
2023-03-05T13:24:51.275Z,7.6
2023-03-05T13:27:53.265Z,7
2023-03-05T13:30:55.202Z,5.6
2023-03-05T13:33:57.168Z,7.2
2023-03-05T13:36:59.138Z,5.1
2023-03-05T13:40:01.995Z,4.4
2023-03-05T13:43:03.128Z,6.2
2023-03-05T13:46:05.114Z,7.2
2023-03-05T13:49:06.977Z,5.1
2023-03-05T13:52:08.937Z,7.3
2023-03-05T13:55:10.887Z,5
2023-03-05T13:58:12.852Z,5.2
2023-03-05T14:01:15.000Z,5.2
2023-03-05T14:04:16.775Z,5.3
2023-03-05T14:07:18.855Z,23.5
2023-03-05T14:10:20.689Z,8.3
2023-03-05T14:13:22.684Z,5.8
2023-03-05T14:16:24.708Z,6.6
2023-03-05T14:19:26.554Z,4.6
2023-03-05T14:22:28.547Z,4.7
2023-03-05T14:25:30.510Z,5.4
2023-03-05T14:28:32.441Z,5.3
2023-03-05T14:31:34.405Z,3.8
2023-03-05T14:34:36.360Z,4.6
2023-03-05T14:37:38.333Z,5
2023-03-05T14:40:40.263Z,6.2
2023-03-05T14:43:42.390Z,4.6
2023-03-05T14:46:44.217Z,4.8
2023-03-05T14:49:46.148Z,3.9
2023-03-05T14:52:48.137Z,5
2023-03-05T14:55:50.087Z,4.9
2023-03-05T14:58:52.077Z,6
2023-03-05T15:01:54.021Z,5.3
2023-03-05T15:04:55.989Z,4.6
2023-03-05T15:07:57.914Z,5
2023-03-05T15:11:00.038Z,8.8
2023-03-05T15:14:01.882Z,5.1
2023-03-05T15:17:03.832Z,4.2
2023-03-05T15:20:05.806Z,5.3
2023-03-05T15:23:07.733Z,9.4
2023-03-05T15:26:09.715Z,5.8
2023-03-05T15:29:11.682Z,5.2
2023-03-05T15:32:13.743Z,4.9
2023-03-05T15:35:15.607Z,8.4
2023-03-05T15:38:17.564Z,5.2
2023-03-05T15:41:19.541Z,4.7
2023-03-05T15:44:21.487Z,6.7
2023-03-05T15:47:23.452Z,3.8
2023-03-05T15:50:25.414Z,7.4
2023-03-05T15:53:27.402Z,3.4
2023-03-05T15:56:29.333Z,3.9
2023-03-05T15:59:31.311Z,4.8
2023-03-05T16:02:33.248Z,5
2023-03-05T16:05:35.211Z,5.2
2023-03-05T16:08:37.315Z,6
2023-03-05T16:11:39.172Z,4.1
2023-03-05T16:14:41.103Z,6.2
2023-03-05T16:17:44.122Z,12.4
2023-03-05T16:20:45.053Z,18.8
2023-03-05T16:23:47.017Z,12
2023-03-05T16:26:49.001Z,14.2
2023-03-05T16:29:50.933Z,9.8
2023-03-05T16:32:53.771Z,12.9
2023-03-05T16:35:56.164Z,10.1
2023-03-05T16:38:56.855Z,12.1
2023-03-05T16:41:58.782Z,8.5
2023-03-05T16:45:00.763Z,6.7
2023-03-05T16:48:02.725Z,6.9
2023-03-05T16:51:04.683Z,7.3
2023-03-05T16:54:08.466Z,9.1
2023-03-05T16:57:08.670Z,6.8
2023-03-05T17:00:10.591Z,8.7
2023-03-05T17:03:12.530Z,8.5
2023-03-05T17:06:14.529Z,6.5
2023-03-05T17:09:16.474Z,17.3
2023-03-05T17:12:18.464Z,9.6
2023-03-05T17:15:20.405Z,11
2023-03-05T17:18:22.357Z,9.4
2023-03-05T17:21:24.335Z,8.2
2023-03-05T17:24:26.315Z,10.5
2023-03-05T17:27:28.350Z,9.5
2023-03-05T17:30:30.248Z,7.6
2023-03-05T17:33:32.232Z,18.2
2023-03-05T17:36:34.141Z,14.9
2023-03-05T17:39:36.079Z,11.6
2023-03-05T17:42:38.091Z,11.5
2023-03-05T17:45:40.272Z,11.3
2023-03-05T17:48:42.001Z,10.8
2023-03-05T17:51:43.946Z,8.1
2023-03-05T17:54:45.893Z,8.5
2023-03-05T17:57:47.908Z,8.3
2023-03-05T18:00:49.882Z,8.1
2023-03-05T18:03:51.842Z,7.3
2023-03-05T18:06:53.800Z,13.6
2023-03-05T18:09:55.757Z,19.1
2023-03-05T18:12:57.710Z,16.9
2023-03-05T18:15:59.700Z,11.3
2023-03-05T18:19:01.649Z,11.2
2023-03-05T18:22:03.607Z,9.6
2023-03-05T18:25:05.686Z,10.5
2023-03-05T18:28:07.512Z,12.7
2023-03-05T18:31:09.471Z,7.7
2023-03-05T18:34:11.419Z,10.3
2023-03-05T18:37:13.379Z,10.1
2023-03-05T18:40:16.870Z,9.3
2023-03-05T18:43:17.332Z,8
2023-03-05T18:46:19.667Z,9.6
2023-03-05T18:49:21.241Z,8.1
2023-03-05T18:52:23.209Z,9.3
2023-03-05T18:55:25.145Z,7.8
2023-03-05T18:58:27.113Z,10.8
2023-03-05T19:01:29.169Z,9.3
2023-03-05T19:04:31.064Z,8.7
2023-03-05T19:07:33.051Z,8.8
2023-03-05T19:10:34.937Z,7.7
2023-03-05T19:13:36.921Z,9
2023-03-05T19:16:38.918Z,10
2023-03-05T19:19:40.856Z,7.4
2023-03-05T19:22:42.866Z,8.4
2023-03-05T19:25:44.833Z,8.6
2023-03-05T19:28:46.782Z,5.6
2023-03-05T19:31:48.734Z,6.4
2023-03-05T19:34:50.710Z,9.3
2023-03-05T19:37:52.653Z,8.2
2023-03-05T19:40:54.645Z,9.2
2023-03-05T19:43:56.573Z,8.9
2023-03-05T19:46:58.548Z,8.2
2023-03-05T19:50:00.542Z,7.1
2023-03-05T19:53:02.455Z,7.9
2023-03-05T19:56:04.419Z,8.8
2023-03-05T19:59:06.557Z,7.7
2023-03-05T20:02:08.372Z,10.5
2023-03-05T20:05:10.409Z,8.8
2023-03-05T20:08:12.479Z,8
2023-03-05T20:11:14.245Z,13.3
2023-03-05T20:14:16.256Z,9.7
2023-03-05T20:17:18.171Z,12.6
2023-03-05T20:20:20.138Z,8.1
2023-03-05T20:23:22.142Z,10.5
2023-03-05T20:26:24.069Z,9.5
2023-03-05T20:29:26.158Z,10.2
2023-03-05T20:32:28.082Z,8.4
2023-03-05T20:35:30.011Z,8.3
2023-03-05T20:38:31.926Z,8.4
2023-03-05T20:41:33.912Z,10.7
2023-03-05T20:44:35.919Z,11.6
2023-03-05T20:47:37.817Z,12.5
2023-03-05T20:50:39.808Z,11.1
2023-03-05T20:53:41.774Z,6.8
2023-03-05T20:56:43.723Z,15.4
2023-03-05T20:59:45.677Z,8.2
2023-03-05T21:02:47.634Z,8.4
2023-03-05T21:05:49.611Z,9.9
2023-03-05T21:08:51.557Z,8.8
2023-03-05T21:11:53.521Z,8.4
2023-03-05T21:14:55.490Z,9.4
2023-03-05T21:17:57.484Z,11.8
2023-03-05T21:20:59.436Z,9.6
2023-03-05T21:24:01.398Z,8.8
2023-03-05T21:27:03.397Z,12.6
2023-03-05T21:30:05.327Z,11.8
2023-03-05T21:33:07.304Z,12.5
2023-03-05T21:36:09.217Z,9.4
2023-03-05T21:39:11.167Z,10.2
2023-03-05T21:42:13.342Z,9.5
2023-03-05T21:45:15.108Z,12.8
2023-03-05T21:48:17.060Z,10
2023-03-05T21:51:19.027Z,11.7
2023-03-05T21:54:21.001Z,12.1
2023-03-05T21:57:22.954Z,10.5
2023-03-05T22:00:24.898Z,13.7
2023-03-05T22:03:26.941Z,10.1
2023-03-05T22:06:28.888Z,9.6
2023-03-05T22:09:30.848Z,11.2
2023-03-05T22:12:32.780Z,13
2023-03-05T22:15:34.774Z,10.9
2023-03-05T22:18:36.768Z,9.9
2023-03-05T22:21:38.678Z,9.8
2023-03-05T22:24:40.627Z,10.1
2023-03-05T22:27:42.577Z,9.5
2023-03-05T22:30:44.669Z,10.1
2023-03-05T22:33:46.498Z,12.3
2023-03-05T22:36:48.453Z,10
2023-03-05T22:39:50.433Z,10.5
2023-03-05T22:42:52.384Z,9.5
2023-03-05T22:45:54.446Z,9.6
2023-03-05T22:48:56.361Z,10.2
2023-03-05T22:51:58.326Z,9.6
2023-03-05T22:55:00.267Z,8.8
2023-03-05T22:58:02.247Z,8.9
2023-03-05T23:01:04.233Z,10.3
2023-03-05T23:04:06.192Z,7.3
2023-03-05T23:07:08.144Z,9.6
2023-03-05T23:10:10.124Z,16.5
2023-03-05T23:13:12.041Z,14.2
2023-03-05T23:16:14.080Z,11.5
2023-03-05T23:19:16.026Z,9.8
2023-03-05T23:22:17.960Z,8.9
2023-03-05T23:25:19.899Z,8
2023-03-05T23:28:21.847Z,12.4
2023-03-05T23:31:24.047Z,9.3
2023-03-05T23:34:25.804Z,9.3
2023-03-05T23:37:27.750Z,9.8
2023-03-05T23:40:29.680Z,12.7
2023-03-05T23:43:31.640Z,10.6
2023-03-05T23:46:33.729Z,8.9
2023-03-05T23:49:35.652Z,8.2
2023-03-05T23:52:37.573Z,7.5
2023-03-05T23:55:39.537Z,10.8
2023-03-05T23:58:41.521Z,8.7
